Agata, Russia
Current Conditions -  °F | °C
As of 12:00 PM on Tuesday 23 Dec 2014 (Local Time) from USNN Reporting Station
Overcast Overcast  
Wind Chill: 13°   Ceiling: 600
Heat Index: 25°   Visibility: 6mi
Dew Point: 21°   Wind: 13mph
Humidity: 86%   Direction: 130°SE
Pressure: 29.88"   Gusts: 20mph
Location:  66.92°N, 93.5°E
Report Text: USNN 230500Z 13006G09MPS 9999 OVC006 M04/M06 Q1012 NOSIG RMKQFE754 QBB180 21410238
Loading
Personal Weather Stations






























Interactive Weather Map New forecast layout! Learn more

10-Day Weather Forecast

Advertisements
Track Severe Weather on mobile